createdAt,value
2018-03-26T00:01:30.340Z,44.60
2018-03-26T00:03:57.785Z,44.58
2018-03-26T00:06:25.230Z,42.83
2018-03-26T00:08:53.878Z,43.83
2018-03-26T00:11:21.308Z,45.25
2018-03-26T00:13:49.519Z,44.00
2018-03-26T00:16:17.726Z,43.40
2018-03-26T00:18:45.165Z,42.80
2018-03-26T00:21:12.604Z,45.65
2018-03-26T00:23:40.128Z,42.47
2018-03-26T00:26:08.392Z,42.72
2018-03-26T00:28:35.956Z,41.55
2018-03-26T00:31:03.406Z,43.17
2018-03-26T00:33:30.868Z,44.17
2018-03-26T00:35:58.404Z,42.92
2018-03-26T00:38:25.853Z,43.87
2018-03-26T00:40:53.352Z,45.97
2018-03-26T00:43:20.788Z,43.58
2018-03-26T00:45:48.248Z,42.50
2018-03-26T00:48:15.733Z,42.35
2018-03-26T00:50:43.942Z,40.78
2018-03-26T00:53:11.372Z,42.30
2018-03-26T00:55:38.929Z,39.55
2018-03-26T00:58:06.364Z,44.70
2018-03-26T01:00:33.820Z,45.10
2018-03-26T01:03:01.308Z,44.17
2018-03-26T01:05:28.793Z,42.90
2018-03-26T01:07:57.218Z,45.08
2018-03-26T01:10:24.665Z,47.38
2018-03-26T01:12:52.518Z,46.03
2018-03-26T01:15:19.957Z,45.12
2018-03-26T01:17:47.413Z,41.70
2018-03-26T01:20:15.688Z,40.17
2018-03-26T01:22:43.162Z,42.65
2018-03-26T01:25:10.609Z,46.22
2018-03-26T01:27:38.224Z,45.47
2018-03-26T01:30:06.448Z,45.28
2018-03-26T01:32:33.950Z,47.40
2018-03-26T01:35:01.394Z,44.72
2018-03-26T01:37:28.852Z,48.70
2018-03-26T01:39:56.308Z,52.33
2018-03-26T01:42:23.769Z,47.03
2018-03-26T01:44:51.223Z,48.95
2018-03-26T01:47:18.770Z,48.00
2018-03-26T01:49:46.205Z,47.15
2018-03-26T01:52:13.834Z,51.00
2018-03-26T01:54:41.286Z,49.75
2018-03-26T01:57:09.498Z,51.17
2018-03-26T01:59:46.833Z,46.88
2018-03-26T02:02:14.300Z,47.00
2018-03-26T02:04:42.530Z,49.13
2018-03-26T02:07:10.081Z,49.30
2018-03-26T02:09:37.516Z,49.17
2018-03-26T02:12:04.961Z,53.85
2018-03-26T02:14:33.496Z,50.55
2018-03-26T02:17:00.944Z,53.00
2018-03-26T02:19:28.382Z,52.83
2018-03-26T02:21:55.972Z,51.53
2018-03-26T02:24:23.424Z,51.80
2018-03-26T02:26:51.032Z,52.90
2018-03-26T02:29:19.281Z,49.85
2018-03-26T02:31:46.729Z,49.72
2018-03-26T02:34:14.195Z,50.22
2018-03-26T02:36:41.858Z,51.37
2018-03-26T02:39:09.302Z,50.75
2018-03-26T02:41:36.751Z,52.70
2018-03-26T02:44:04.229Z,50.28
2018-03-26T02:46:31.676Z,48.60
2018-03-26T02:48:59.141Z,53.45
2018-03-26T02:51:26.575Z,51.50
2018-03-26T02:53:54.125Z,56.22
2018-03-26T02:59:12.326Z,54.50
2018-03-26T03:01:39.778Z,52.62
2018-03-26T03:04:12.483Z,52.28
2018-03-26T03:06:39.913Z,54.72
2018-03-26T03:09:07.348Z,56.78
2018-03-26T03:11:34.916Z,51.40
2018-03-26T03:14:02.357Z,53.85
2018-03-26T03:16:29.803Z,52.67
2018-03-26T03:18:58.116Z,53.42
2018-03-26T03:21:25.759Z,51.17
2018-03-26T03:23:53.191Z,55.83
2018-03-26T03:26:20.640Z,51.75
2018-03-26T03:28:48.928Z,58.38
2018-03-26T03:31:16.415Z,57.15
2018-03-26T03:33:43.856Z,56.25
2018-03-26T03:36:11.317Z,56.03
2018-03-26T03:38:38.788Z,62.28
2018-03-26T03:41:06.231Z,55.28
2018-03-26T03:43:34.121Z,56.60
2018-03-26T03:46:01.576Z,58.03
2018-03-26T03:48:29.029Z,55.40
2018-03-26T03:50:56.519Z,57.25
2018-03-26T03:53:23.949Z,58.28
2018-03-26T03:55:51.437Z,56.17
2018-03-26T03:58:18.868Z,57.88
2018-03-26T04:00:46.633Z,62.08
2018-03-26T04:03:14.082Z,63.40
2018-03-26T04:05:41.525Z,57.65
2018-03-26T04:08:09.006Z,71.60
2018-03-26T04:10:36.460Z,63.05
2018-03-26T04:13:03.904Z,65.65
2018-03-26T04:15:31.441Z,68.78
2018-03-26T04:17:58.912Z,65.78
2018-03-26T04:20:26.352Z,66.60
2018-03-26T04:22:53.919Z,63.00
2018-03-26T04:25:26.353Z,66.78
2018-03-26T04:27:53.893Z,68.35
2018-03-26T04:30:21.345Z,63.75
2018-03-26T04:32:48.800Z,69.32
2018-03-26T04:35:16.270Z,74.18
2018-03-26T04:37:45.704Z,67.68
2018-03-26T04:40:14.044Z,66.22
2018-03-26T04:42:41.579Z,66.70
2018-03-26T04:45:09.013Z,67.43
2018-03-26T04:47:36.500Z,63.83
2018-03-26T04:50:03.939Z,75.95
2018-03-26T04:52:46.157Z,73.28
2018-03-26T04:55:13.625Z,71.07
2018-03-26T04:57:41.240Z,81.63
2018-03-26T05:00:09.454Z,80.10
2018-03-26T05:02:36.991Z,86.53
2018-03-26T05:05:04.433Z,83.40
2018-03-26T05:07:32.648Z,83.12
2018-03-26T05:10:02.005Z,79.28
2018-03-26T05:12:30.217Z,83.62
2018-03-26T05:14:57.716Z,79.03
2018-03-26T05:17:25.156Z,81.70
2018-03-26T05:19:56.415Z,83.32
2018-03-26T05:22:23.856Z,82.65
2018-03-26T05:24:51.340Z,81.53
2018-03-26T05:27:34.657Z,85.38
2018-03-26T05:30:02.118Z,85.32
2018-03-26T05:32:29.569Z,79.40
2018-03-26T05:35:00.843Z,89.97
2018-03-26T05:37:28.277Z,80.53
2018-03-26T05:39:55.730Z,79.70
2018-03-26T05:42:23.217Z,76.97
2018-03-26T05:44:51.432Z,81.28
2018-03-26T05:47:18.878Z,82.07
2018-03-26T05:49:46.505Z,78.50
2018-03-26T05:52:13.999Z,74.07
2018-03-26T05:54:41.405Z,73.10
2018-03-26T05:57:08.882Z,66.82
2018-03-26T05:59:37.114Z,71.75
2018-03-26T06:02:04.608Z,67.30
2018-03-26T06:04:32.229Z,69.57
2018-03-26T06:06:59.676Z,68.50
2018-03-26T06:09:27.130Z,74.30
2018-03-26T06:11:54.789Z,81.15
2018-03-26T06:14:22.248Z,100.53
2018-03-26T06:17:01.654Z,132.82
2018-03-26T06:19:29.869Z,114.75
2018-03-26T06:21:57.441Z,179.12
2018-03-26T06:24:24.884Z,200.65
2018-03-26T06:26:52.341Z,140.57
2018-03-26T06:29:20.148Z,99.03
2018-03-26T06:31:47.596Z,63.58
2018-03-26T06:34:15.041Z,65.75
2018-03-26T06:36:44.074Z,116.05
2018-03-26T06:39:15.873Z,61.35
2018-03-26T06:41:43.766Z,64.45
2018-03-26T06:44:11.260Z,62.20
2018-03-26T06:46:38.667Z,70.62
2018-03-26T06:49:06.144Z,65.57
2018-03-26T06:51:33.629Z,59.95
2018-03-26T06:54:01.092Z,59.38
2018-03-26T06:56:29.349Z,59.00
2018-03-26T06:58:56.884Z,58.22
2018-03-26T07:01:24.325Z,56.40
2018-03-26T07:03:51.865Z,58.25
2018-03-26T07:06:19.361Z,63.00
2018-03-26T07:08:46.837Z,63.53
2018-03-26T07:11:14.284Z,67.22
2018-03-26T07:13:41.760Z,60.90
2018-03-26T07:16:09.398Z,60.22
2018-03-26T07:18:36.881Z,57.58
2018-03-26T07:21:04.333Z,61.03
2018-03-26T07:23:31.972Z,54.53
2018-03-26T07:25:59.448Z,50.72
2018-03-26T07:28:26.893Z,53.53
2018-03-26T07:30:55.196Z,54.45
2018-03-26T07:33:22.648Z,53.00
2018-03-26T07:35:50.144Z,51.65
2018-03-26T07:38:17.593Z,46.80
2018-03-26T07:40:45.065Z,49.15
2018-03-26T07:43:12.514Z,51.78
2018-03-26T07:45:40.154Z,49.97
2018-03-26T07:48:08.372Z,53.20
2018-03-26T07:50:35.817Z,49.30
2018-03-26T08:01:55.422Z,55.45
2018-03-26T08:04:23.752Z,60.88
2018-03-26T08:06:51.218Z,62.33
2018-03-26T08:09:18.676Z,53.95
2018-03-26T08:11:46.117Z,57.08
2018-03-26T08:14:13.572Z,56.05
2018-03-26T08:16:41.086Z,57.33
2018-03-26T08:19:08.587Z,50.03
2018-03-26T08:21:36.029Z,52.25
2018-03-26T08:24:16.513Z,53.47
2018-03-26T08:26:43.974Z,55.65
2018-03-26T08:29:11.453Z,50.95
2018-03-26T08:31:39.127Z,49.90
2018-03-26T08:34:06.561Z,47.28
2018-03-26T08:36:34.973Z,43.70
2018-03-26T08:39:02.422Z,47.97
2018-03-26T08:41:29.975Z,44.33
2018-03-26T08:43:57.444Z,43.25
2018-03-26T08:46:25.033Z,37.10
2018-03-26T08:48:53.243Z,36.88
2018-03-26T08:51:20.686Z,33.70
2018-03-26T08:53:48.253Z,32.78
2018-03-26T08:56:15.754Z,29.37
2018-03-26T08:58:43.149Z,32.03
2018-03-26T09:01:27.388Z,34.92
2018-03-26T09:03:55.592Z,26.33
2018-03-26T09:06:23.045Z,20.25
2018-03-26T09:08:50.840Z,19.75
2018-03-26T09:11:18.302Z,16.02
2018-03-26T09:13:45.738Z,14.85
2018-03-26T09:16:13.218Z,11.93
2018-03-26T09:18:40.648Z,13.00
2018-03-26T09:21:08.142Z,11.23
2018-03-26T09:23:35.579Z,10.40
2018-03-26T09:26:03.065Z,11.55
2018-03-26T09:28:30.804Z,9.15
2018-03-26T09:30:58.249Z,11.10
2018-03-26T09:33:26.079Z,7.82
2018-03-26T09:35:54.315Z,9.45
2018-03-26T09:38:21.964Z,8.93
2018-03-26T09:40:49.408Z,11.77
2018-03-26T09:43:16.887Z,10.90
2018-03-26T09:45:45.301Z,9.25
2018-03-26T09:48:13.504Z,11.43
2018-03-26T09:50:41.404Z,12.32
2018-03-26T09:53:08.854Z,12.73
2018-03-26T09:55:36.410Z,10.55
2018-03-26T09:58:03.901Z,9.20
2018-03-26T10:00:37.073Z,12.48
2018-03-26T10:03:04.536Z,11.20
2018-03-26T10:05:31.980Z,11.20
2018-03-26T10:07:59.585Z,12.35
2018-03-26T10:10:30.597Z,10.95
2018-03-26T10:12:58.036Z,12.23
2018-03-26T10:15:25.496Z,10.65
2018-03-26T10:17:52.990Z,11.80
2018-03-26T10:20:20.447Z,12.45
2018-03-26T10:22:47.888Z,10.98
2018-03-26T10:25:15.402Z,8.23
2018-03-26T10:27:43.592Z,5.10
2018-03-26T10:30:11.069Z,8.13
2018-03-26T10:32:38.502Z,9.15
2018-03-26T10:35:05.940Z,7.22
2018-03-26T10:37:33.483Z,7.50
2018-03-26T10:40:01.693Z,8.60
2018-03-26T10:42:30.020Z,7.75
2018-03-26T10:44:57.610Z,6.22
2018-03-26T10:47:25.043Z,4.20
2018-03-26T10:49:52.510Z,8.40
2018-03-26T10:52:20.716Z,6.85
2018-03-26T10:54:48.219Z,5.78
2018-03-26T10:57:15.669Z,6.97
2018-03-26T10:59:43.146Z,6.15
2018-03-26T11:02:10.592Z,7.40
2018-03-26T11:04:38.060Z,11.43
2018-03-26T11:07:05.509Z,10.93
2018-03-26T11:09:33.062Z,11.07
2018-03-26T11:12:00.506Z,12.13
2018-03-26T11:14:27.980Z,13.25
2018-03-26T11:16:55.437Z,14.52
2018-03-26T11:19:22.887Z,11.50
2018-03-26T11:21:50.352Z,11.27
2018-03-26T11:24:17.798Z,10.80
2018-03-26T11:26:45.333Z,12.32
2018-03-26T11:29:12.978Z,17.87
2018-03-26T11:31:40.443Z,14.73
2018-03-26T11:34:07.905Z,13.07
2018-03-26T11:36:35.382Z,16.52
2018-03-26T11:39:03.598Z,14.77
2018-03-26T11:41:31.155Z,16.45
2018-03-26T11:43:58.607Z,11.65
2018-03-26T11:46:26.473Z,11.63
2018-03-26T11:48:53.912Z,11.80
2018-03-26T11:51:21.505Z,11.95
2018-03-26T11:53:50.899Z,8.75
2018-03-26T11:56:19.292Z,9.30
2018-03-26T11:58:47.940Z,10.38
2018-03-26T12:01:15.426Z,9.25
2018-03-26T12:03:42.992Z,6.93
2018-03-26T12:06:10.576Z,5.18
2018-03-26T12:08:38.028Z,7.70
2018-03-26T12:11:06.234Z,6.12
2018-03-26T12:13:34.108Z,5.07
2018-03-26T12:16:01.552Z,6.15
2018-03-26T12:18:28.984Z,7.12
2018-03-26T12:20:57.239Z,7.15
2018-03-26T12:23:36.580Z,8.15
2018-03-26T12:26:05.041Z,8.50
2018-03-26T12:28:44.388Z,7.15
2018-03-26T12:31:11.844Z,7.05
2018-03-26T12:33:51.247Z,7.60
2018-03-26T12:36:18.747Z,6.57
2018-03-26T12:39:03.719Z,7.12
2018-03-26T12:41:31.259Z,6.30
2018-03-26T12:43:58.706Z,6.25
2018-03-26T12:46:38.626Z,6.25
2018-03-26T12:49:06.919Z,6.37
2018-03-26T12:51:57.944Z,6.05
2018-03-26T12:54:25.447Z,9.43
2018-03-26T12:57:05.716Z,9.57
2018-03-26T12:59:33.197Z,12.13
2018-03-26T13:02:12.665Z,12.07
2018-03-26T13:04:40.189Z,13.02
2018-03-26T13:07:07.678Z,13.95
2018-03-26T13:09:35.194Z,11.00
2018-03-26T13:12:03.029Z,11.45
2018-03-26T13:14:31.305Z,11.48
2018-03-26T13:16:58.780Z,11.80
2018-03-26T13:19:44.717Z,10.30
2018-03-26T13:22:12.158Z,10.13
2018-03-26T13:24:39.642Z,11.45
2018-03-26T13:27:07.615Z,10.35
2018-03-26T13:29:35.304Z,8.85
2018-03-26T13:32:03.528Z,8.43
2018-03-26T13:34:31.121Z,8.15
2018-03-26T13:36:58.612Z,9.30
2018-03-26T13:39:26.387Z,9.80
2018-03-26T13:41:53.918Z,9.90
2018-03-26T13:44:21.641Z,10.55
2018-03-26T13:47:03.957Z,8.23
2018-03-26T13:49:31.636Z,5.05
2018-03-26T13:51:59.080Z,5.57
2018-03-26T13:57:18.342Z,5.90
2018-03-26T13:59:45.929Z,6.97
2018-03-26T14:02:13.365Z,6.20
2018-03-26T14:04:40.829Z,7.15
2018-03-26T14:07:08.332Z,6.70
2018-03-26T14:09:48.861Z,8.60
2018-03-26T14:12:28.181Z,6.00
2018-03-26T14:15:08.389Z,6.30
2018-03-26T14:17:49.215Z,6.18
2018-03-26T14:20:16.885Z,8.10
2018-03-26T14:22:45.326Z,7.00
2018-03-26T14:25:12.891Z,6.72
2018-03-26T14:27:40.610Z,7.75
2018-03-26T14:30:10.706Z,4.35
2018-03-26T14:32:38.170Z,3.90
2018-03-26T14:35:30.686Z,6.12
2018-03-26T14:37:59.294Z,5.25
2018-03-26T14:40:29.121Z,5.50
2018-03-26T14:42:57.001Z,5.95
2018-03-26T14:45:25.440Z,5.62
2018-03-26T14:51:01.820Z,4.00
2018-03-26T14:53:31.270Z,3.72
2018-03-26T14:56:22.241Z,4.32
2018-03-26T15:01:40.701Z,2.95
2018-03-26T15:04:09.945Z,4.50
2018-03-26T15:26:19.077Z,6.68
2018-03-26T15:28:46.929Z,5.85
2018-03-26T15:31:14.405Z,6.50
2018-03-26T15:33:41.886Z,5.80
2018-03-26T15:36:09.534Z,5.82
2018-03-26T15:38:37.047Z,6.80
2018-03-26T15:41:04.554Z,5.75
2018-03-26T15:43:32.037Z,6.87
2018-03-26T15:45:59.537Z,7.15
2018-03-26T15:48:27.326Z,9.68
2018-03-26T15:50:54.780Z,6.70
2018-03-26T15:53:22.338Z,8.15
2018-03-26T15:55:49.837Z,7.00
2018-03-26T15:58:26.244Z,6.70
2018-03-26T16:00:53.710Z,8.20
2018-03-26T16:03:26.052Z,8.13
2018-03-26T16:05:54.286Z,8.15
2018-03-26T16:11:33.393Z,7.68
2018-03-26T16:14:00.870Z,8.18
2018-03-26T16:16:28.328Z,7.07
2018-03-26T16:18:55.960Z,7.55
2018-03-26T16:21:34.229Z,6.35
2018-03-26T16:24:01.696Z,6.90
2018-03-26T16:26:29.225Z,7.00
2018-03-26T16:28:56.892Z,6.15
2018-03-26T16:31:24.574Z,6.75
2018-03-26T16:33:52.111Z,5.80
2018-03-26T16:36:19.759Z,5.10
2018-03-26T16:38:47.201Z,6.07
2018-03-26T16:41:26.434Z,7.37
2018-03-26T16:43:54.905Z,8.57
2018-03-26T16:46:23.877Z,6.78
2018-03-26T16:48:51.304Z,4.57
2018-03-26T16:51:18.742Z,7.03
2018-03-26T16:53:48.339Z,25.15
2018-03-26T16:56:15.788Z,33.90
2018-03-26T16:58:43.228Z,8.48
2018-03-26T17:01:11.570Z,21.15
2018-03-26T17:03:39.020Z,18.55
2018-03-26T17:06:06.521Z,13.05
2018-03-26T17:08:34.714Z,9.02
2018-03-26T17:11:02.444Z,7.85
2018-03-26T17:13:30.593Z,3.15
2018-03-26T17:16:09.036Z,3.05
2018-03-26T17:18:36.473Z,3.35
2018-03-26T17:21:06.392Z,4.00
2018-03-26T17:23:33.833Z,5.15
2018-03-26T17:26:01.269Z,3.90
2018-03-26T17:28:28.785Z,4.18
2018-03-26T17:30:56.557Z,3.80
2018-03-26T17:33:24.777Z,5.72
2018-03-26T17:35:52.294Z,5.75
2018-03-26T17:38:20.549Z,4.10
2018-03-26T17:40:47.980Z,4.78
2018-03-26T17:43:15.438Z,10.30
2018-03-26T17:45:42.885Z,4.57
2018-03-26T17:48:10.341Z,9.23
2018-03-26T17:50:37.810Z,14.40
2018-03-26T17:53:05.316Z,8.15
2018-03-26T17:55:33.547Z,4.75
2018-03-26T17:58:01.025Z,3.97
2018-03-26T18:00:28.484Z,5.78
2018-03-26T18:02:55.938Z,3.53
2018-03-26T18:05:27.333Z,5.72
2018-03-26T18:07:55.024Z,5.07
2018-03-26T18:10:22.528Z,6.53
2018-03-26T18:12:49.892Z,5.00
2018-03-26T18:15:18.137Z,4.50
2018-03-26T18:18:00.421Z,3.92
2018-03-26T18:20:27.877Z,4.62
2018-03-26T18:22:56.580Z,4.95
2018-03-26T18:25:24.018Z,4.45
2018-03-26T18:27:51.450Z,4.30
2018-03-26T18:30:18.912Z,4.30
2018-03-26T18:32:46.685Z,5.70
2018-03-26T18:35:14.288Z,5.37
2018-03-26T18:37:41.748Z,6.10
2018-03-26T18:40:09.273Z,5.35
2018-03-26T18:42:36.728Z,6.55
2018-03-26T18:45:04.238Z,5.65
2018-03-26T18:47:31.680Z,17.42
2018-03-26T18:49:59.125Z,32.30
2018-03-26T18:52:26.621Z,29.55
2018-03-26T18:54:55.805Z,17.65
2018-03-26T18:57:23.271Z,9.32
2018-03-26T18:59:51.541Z,8.40
2018-03-26T19:02:35.893Z,9.75
2018-03-26T19:05:03.347Z,13.02
2018-03-26T19:07:30.786Z,10.30
2018-03-26T19:09:58.243Z,13.85
2018-03-26T19:12:26.236Z,25.02
2018-03-26T19:26:26.585Z,15.27
2018-03-26T19:28:54.028Z,15.50
2018-03-26T19:31:22.424Z,11.93
2018-03-26T19:33:49.897Z,11.27
2018-03-26T19:36:18.156Z,10.45
2018-03-26T19:38:45.594Z,10.70
2018-03-26T19:41:13.031Z,9.43
2018-03-26T19:43:40.562Z,11.30
2018-03-26T19:46:08.137Z,10.70
2018-03-26T19:48:35.581Z,39.00
2018-03-26T19:51:03.047Z,23.05
2018-03-26T19:53:47.508Z,15.65
2018-03-26T19:56:16.234Z,16.23
2018-03-26T19:58:43.686Z,13.95
2018-03-26T20:01:11.182Z,13.40
2018-03-26T20:03:39.393Z,13.15
2018-03-26T20:06:06.872Z,15.13
2018-03-26T20:08:34.309Z,11.50
2018-03-26T20:11:01.770Z,11.73
2018-03-26T20:13:31.816Z,12.70
2018-03-26T20:15:59.318Z,13.73
2018-03-26T20:18:41.277Z,18.73
2018-03-26T20:21:08.731Z,33.58
2018-03-26T20:23:39.169Z,21.15
2018-03-26T20:26:06.653Z,14.48
2018-03-26T20:28:35.185Z,12.70
2018-03-26T20:31:02.633Z,14.60
2018-03-26T20:33:31.492Z,14.48
2018-03-26T20:35:58.933Z,15.13
2018-03-26T20:38:27.175Z,13.77
2018-03-26T20:40:55.834Z,12.55
2018-03-26T20:43:23.269Z,12.57
2018-03-26T20:45:55.607Z,10.30
2018-03-26T20:48:23.139Z,8.40
2018-03-26T20:50:50.585Z,10.20
2018-03-26T20:53:18.045Z,10.65
2018-03-26T20:55:45.560Z,10.68
2018-03-26T20:58:13.071Z,10.18
2018-03-26T21:00:40.509Z,11.30
2018-03-26T21:05:58.529Z,11.52
2018-03-26T21:08:26.761Z,9.82
2018-03-26T21:10:54.201Z,9.80
2018-03-26T21:13:21.760Z,10.63
2018-03-26T21:15:49.204Z,10.77
2018-03-26T21:18:16.650Z,10.38
2018-03-26T21:20:45.494Z,14.07
2018-03-26T21:23:12.936Z,11.85
2018-03-26T21:25:40.412Z,10.77
2018-03-26T21:28:07.845Z,11.27
2018-03-26T21:30:36.122Z,12.45
2018-03-26T21:33:05.054Z,12.57
2018-03-26T21:35:32.492Z,15.45
2018-03-26T21:37:59.936Z,14.52
2018-03-26T21:40:27.405Z,9.60
2018-03-26T21:42:54.842Z,10.60
2018-03-26T21:45:22.306Z,11.20
2018-03-26T21:47:49.746Z,9.75
2018-03-26T21:50:17.288Z,10.35
2018-03-26T21:52:44.726Z,9.60
2018-03-26T21:55:12.290Z,11.30
2018-03-26T21:57:40.497Z,11.95
2018-03-26T22:00:08.737Z,11.63
2018-03-26T22:02:41.897Z,12.18
2018-03-26T22:05:09.367Z,12.65
2018-03-26T22:07:36.801Z,14.20
2018-03-26T22:10:04.288Z,11.10
2018-03-26T22:12:31.733Z,12.70
2018-03-26T22:14:59.181Z,17.33
2018-03-26T22:17:26.837Z,15.27
2018-03-26T22:19:54.277Z,12.85
2018-03-26T22:22:21.718Z,12.95
2018-03-26T22:24:49.937Z,13.48
2018-03-26T22:27:17.393Z,13.43
2018-03-26T22:29:44.841Z,12.82
2018-03-26T22:32:12.386Z,12.18
2018-03-26T22:34:39.826Z,13.02
2018-03-26T22:37:07.313Z,13.25
2018-03-26T22:39:34.762Z,13.52
2018-03-26T22:42:02.229Z,13.90
2018-03-26T22:44:29.682Z,13.77
2018-03-26T22:46:57.234Z,13.88
2018-03-26T22:49:24.678Z,14.35
2018-03-26T22:51:52.161Z,12.45
2018-03-26T22:54:19.604Z,13.43
2018-03-26T22:56:50.781Z,13.75
2018-03-26T22:59:18.224Z,14.00
2018-03-26T23:01:45.720Z,14.30
2018-03-26T23:04:13.930Z,16.98
2018-03-26T23:06:41.413Z,21.37
2018-03-26T23:09:08.848Z,19.12
2018-03-26T23:11:36.303Z,15.90
2018-03-26T23:14:03.768Z,15.00
2018-03-26T23:16:31.216Z,13.02
2018-03-26T23:18:58.669Z,16.05
2018-03-26T23:21:26.200Z,14.50
2018-03-26T23:23:54.433Z,17.15
2018-03-26T23:26:21.878Z,16.10
2018-03-26T23:28:56.458Z,15.30
2018-03-26T23:31:24.659Z,16.35
2018-03-26T23:33:52.167Z,18.20
2018-03-26T23:36:19.633Z,13.75
2018-03-26T23:38:47.088Z,12.35
2018-03-26T23:41:14.538Z,13.25
2018-03-26T23:43:41.996Z,12.77
2018-03-26T23:46:09.441Z,14.63
2018-03-26T23:48:37.256Z,16.60
2018-03-26T23:51:05.471Z,18.10
2018-03-26T23:53:50.941Z,14.45
2018-03-26T23:56:18.386Z,14.35
2018-03-26T23:58:45.881Z,15.60
